createdAt,value
2019-04-01T00:00:43.617Z,1.46
2019-04-01T00:03:15.379Z,1.44
2019-04-01T00:05:47.026Z,1.41
2019-04-01T00:08:19.002Z,1.39
2019-04-01T00:10:50.920Z,1.35
2019-04-01T00:13:22.732Z,1.34
2019-04-01T00:15:54.693Z,1.31
2019-04-01T00:18:26.800Z,1.30
2019-04-01T00:20:58.320Z,1.26
2019-04-01T00:23:29.966Z,1.24
2019-04-01T00:26:01.837Z,1.20
2019-04-01T00:28:33.888Z,1.16
2019-04-01T00:31:05.355Z,1.14
2019-04-01T00:33:37.126Z,1.11
2019-04-01T00:36:08.674Z,1.10
2019-04-01T00:38:44.585Z,1.09
2019-04-01T00:41:15.959Z,1.06
2019-04-01T00:43:55.114Z,1.06
2019-04-01T00:46:26.566Z,1.04
2019-04-01T00:48:58.610Z,1.01
2019-04-01T00:51:30.264Z,0.99
2019-04-01T00:54:02.146Z,0.96
2019-04-01T00:56:33.801Z,0.95
2019-04-01T00:59:05.975Z,0.92
2019-04-01T01:01:37.628Z,0.90
2019-04-01T01:04:10.607Z,0.86
2019-04-01T01:06:42.077Z,0.83
2019-04-01T01:09:14.138Z,0.78
2019-04-01T01:11:45.796Z,0.74
2019-04-01T01:14:17.761Z,0.69
2019-04-01T01:16:50.272Z,0.67
2019-04-01T01:19:21.782Z,0.65
2019-04-01T01:21:53.800Z,0.64
2019-04-01T01:24:25.524Z,0.60
2019-04-01T01:26:56.963Z,0.59
2019-04-01T01:29:28.824Z,0.57
2019-04-01T01:32:00.498Z,0.55
2019-04-01T01:34:32.135Z,0.53
2019-04-01T01:37:03.914Z,0.50
2019-04-01T01:39:35.757Z,0.47
2019-04-01T01:42:07.317Z,0.45
2019-04-01T01:44:39.096Z,0.44
2019-04-01T01:47:10.956Z,0.43
2019-04-01T01:49:42.712Z,0.41
2019-04-01T01:52:15.085Z,0.38
2019-04-01T01:54:46.765Z,0.36
2019-04-01T01:57:18.501Z,0.33
2019-04-01T01:59:50.350Z,0.30
2019-04-01T02:02:21.923Z,0.28
2019-04-01T02:04:53.885Z,0.27
2019-04-01T02:07:25.427Z,0.27
2019-04-01T02:09:57.406Z,0.26
2019-04-01T02:12:28.961Z,0.25
2019-04-01T02:15:00.719Z,0.24
2019-04-01T02:17:34.919Z,0.22
2019-04-01T02:20:06.906Z,0.22
2019-04-01T02:22:38.548Z,0.20
2019-04-01T02:25:10.218Z,0.15
2019-04-01T02:27:41.874Z,0.14
2019-04-01T02:30:13.750Z,0.11
2019-04-01T02:32:45.713Z,0.10
2019-04-01T02:35:17.463Z,0.09
2019-04-01T02:37:49.227Z,0.06
2019-04-01T02:40:22.130Z,0.04
2019-04-01T02:42:53.982Z,0.02
2019-04-01T02:45:25.452Z,0.01
2019-04-01T02:47:56.878Z,-0.02
2019-04-01T02:50:28.847Z,-0.06
2019-04-01T02:53:00.574Z,-0.10
2019-04-01T02:55:32.670Z,-0.14
2019-04-01T02:58:04.529Z,-0.16
2019-04-01T03:00:36.064Z,-0.16
2019-04-01T03:03:07.637Z,-0.18
2019-04-01T03:05:39.303Z,-0.19
2019-04-01T03:08:11.259Z,-0.21
2019-04-01T03:10:43.633Z,-0.21
2019-04-01T03:13:15.080Z,-0.18
2019-04-01T03:15:46.743Z,-0.17
2019-04-01T03:18:19.424Z,-0.17
2019-04-01T03:20:51.101Z,-0.15
2019-04-01T03:23:22.849Z,-0.15
2019-04-01T03:25:54.603Z,-0.12
2019-04-01T03:28:26.157Z,-0.13
2019-04-01T03:30:57.698Z,-0.12
2019-04-01T03:33:29.462Z,-0.12
2019-04-01T03:36:01.142Z,-0.10
2019-04-01T03:38:33.101Z,-0.08
2019-04-01T03:41:04.653Z,-0.06
2019-04-01T03:43:36.492Z,-0.08
2019-04-01T03:46:08.274Z,-0.07
2019-04-01T03:48:39.945Z,-0.03
2019-04-01T03:51:11.806Z,0.00
2019-04-01T03:53:43.349Z,0.04
2019-04-01T03:56:15.622Z,0.06
2019-04-01T03:58:47.174Z,0.09
2019-04-01T04:01:19.506Z,0.14
2019-04-01T04:03:51.310Z,0.21
2019-04-01T04:06:23.178Z,0.27
2019-04-01T04:08:56.083Z,0.33
2019-04-01T04:11:27.921Z,0.39
2019-04-01T04:13:59.709Z,0.39
2019-04-01T04:16:31.656Z,0.37
2019-04-01T04:19:03.713Z,0.40
2019-04-01T04:21:35.349Z,0.43
2019-04-01T04:24:07.230Z,0.47
2019-04-01T04:26:38.908Z,0.50
2019-04-01T04:29:10.442Z,0.57
2019-04-01T04:31:42.516Z,0.64
2019-04-01T04:34:14.170Z,0.73
2019-04-01T04:36:45.932Z,0.80
2019-04-01T04:39:17.598Z,0.90
2019-04-01T04:41:49.448Z,0.97
2019-04-01T04:44:21.402Z,1.04
2019-04-01T04:46:52.976Z,1.10
2019-04-01T04:49:24.927Z,1.18
2019-04-01T04:51:56.590Z,1.27
2019-04-01T04:54:28.450Z,1.35
2019-04-01T04:57:00.107Z,1.45
2019-04-01T04:59:32.170Z,1.54
2019-04-01T05:02:04.138Z,1.65
2019-04-01T05:04:36.001Z,1.74
2019-04-01T05:07:08.168Z,1.84
2019-04-01T05:09:39.618Z,1.95
2019-04-01T05:12:11.797Z,2.08
2019-04-01T05:14:43.628Z,2.18
2019-04-01T05:17:15.605Z,2.28
2019-04-01T05:19:48.303Z,2.40
2019-04-01T05:22:20.265Z,2.52
2019-04-01T05:24:52.287Z,2.65
2019-04-01T05:27:25.919Z,2.80
2019-04-01T05:29:57.482Z,2.94
2019-04-01T05:32:29.330Z,3.08
2019-04-01T05:35:01.118Z,3.22
2019-04-01T05:37:32.662Z,3.38
2019-04-01T05:40:05.062Z,3.53
2019-04-01T05:42:37.085Z,3.73
2019-04-01T05:45:08.761Z,3.88
2019-04-01T05:47:45.430Z,4.03
2019-04-01T05:50:17.138Z,4.20
2019-04-01T05:52:49.150Z,4.38
2019-04-01T05:55:20.598Z,4.54
2019-04-01T05:57:53.693Z,4.72
2019-04-01T06:00:30.169Z,4.93
2019-04-01T06:03:01.923Z,5.10
2019-04-01T06:05:33.457Z,5.31
2019-04-01T06:08:05.322Z,5.50
2019-04-01T06:10:37.914Z,5.68
2019-04-01T06:13:09.661Z,6.02
2019-04-01T06:15:41.425Z,6.02
2019-04-01T06:18:13.306Z,6.18
2019-04-01T06:20:45.187Z,6.36
2019-04-01T06:23:17.199Z,6.64
2019-04-01T06:25:48.581Z,6.64
2019-04-01T06:28:21.885Z,6.82
2019-04-01T06:30:54.049Z,7.01
2019-04-01T06:33:25.619Z,7.20
2019-04-01T06:35:57.271Z,7.40
2019-04-01T06:38:28.818Z,7.60
2019-04-01T06:41:00.766Z,7.80
2019-04-01T06:43:32.418Z,7.98
2019-04-01T06:46:04.176Z,8.14
2019-04-01T06:48:36.068Z,8.29
2019-04-01T06:51:07.715Z,8.47
2019-04-01T06:53:39.480Z,8.69
2019-04-01T06:56:11.123Z,8.91
2019-04-01T06:58:43.120Z,9.12
2019-04-01T07:01:14.637Z,9.33
2019-04-01T07:03:46.416Z,9.50
2019-04-01T07:06:17.968Z,9.67
2019-04-01T07:08:49.835Z,9.83
2019-04-01T07:11:21.713Z,10.01
2019-04-01T07:13:53.456Z,10.21
2019-04-01T07:16:24.995Z,10.42
2019-04-01T07:18:57.110Z,10.67
2019-04-01T07:21:29.454Z,10.85
2019-04-01T07:24:01.203Z,11.05
2019-04-01T07:26:32.849Z,11.24
2019-04-01T07:29:04.731Z,11.44
2019-04-01T07:31:36.280Z,11.62
2019-04-01T07:34:08.359Z,11.80
2019-04-01T07:36:40.194Z,12.05
2019-04-01T07:39:11.958Z,12.22
2019-04-01T07:41:43.516Z,12.41
2019-04-01T07:44:15.495Z,12.65
2019-04-01T07:46:47.153Z,12.82
2019-04-01T07:49:19.018Z,12.96
2019-04-01T07:51:51.286Z,13.16
2019-04-01T07:54:22.924Z,13.41
2019-04-01T07:56:54.700Z,13.66
2019-04-01T07:59:26.147Z,13.86
2019-04-01T08:01:57.913Z,14.05
2019-04-01T08:04:29.883Z,14.24
2019-04-01T08:07:01.318Z,14.43
2019-04-01T08:09:33.099Z,14.61
2019-04-01T08:12:05.052Z,14.72
2019-04-01T08:14:36.620Z,14.83
2019-04-01T08:17:08.367Z,15.02
2019-04-01T08:19:40.245Z,15.19
2019-04-01T08:22:12.006Z,15.39
2019-04-01T08:24:43.843Z,15.46
2019-04-01T08:27:15.522Z,15.54
2019-04-01T08:29:47.053Z,15.69
2019-04-01T08:32:19.034Z,15.80
2019-04-01T08:34:50.798Z,15.91
2019-04-01T08:37:22.644Z,15.99
2019-04-01T08:39:54.261Z,16.06
2019-04-01T08:42:26.077Z,16.17
2019-04-01T08:44:57.839Z,16.36
2019-04-01T08:47:29.689Z,16.45
2019-04-01T08:50:01.147Z,16.60
2019-04-01T08:52:32.814Z,16.61
2019-04-01T08:55:06.830Z,16.69
2019-04-01T08:57:38.362Z,16.75
2019-04-01T09:00:10.241Z,16.86
2019-04-01T09:02:41.902Z,17.05
2019-04-01T09:05:13.559Z,17.19
2019-04-01T09:07:45.183Z,17.31
2019-04-01T09:10:16.955Z,17.34
2019-04-01T09:12:48.814Z,17.34
2019-04-01T09:15:20.475Z,17.27
2019-04-01T09:17:52.381Z,17.35
2019-04-01T09:20:24.214Z,17.48
2019-04-01T09:22:59.107Z,17.52
2019-04-01T09:25:29.066Z,17.54
2019-04-01T09:28:00.742Z,17.63
2019-04-01T09:30:33.302Z,17.68
2019-04-01T09:33:05.059Z,17.74
2019-04-01T09:35:36.501Z,17.81
2019-04-01T09:38:08.567Z,17.91
2019-04-01T09:40:40.227Z,18.00
2019-04-01T09:43:14.139Z,18.13
2019-04-01T09:45:45.296Z,18.23
2019-04-01T09:48:17.267Z,18.25
2019-04-01T09:50:49.023Z,18.28
2019-04-01T09:53:22.003Z,18.31
2019-04-01T09:55:53.568Z,18.29
2019-04-01T09:58:25.027Z,18.37
2019-04-01T10:00:56.657Z,18.43
2019-04-01T10:03:28.438Z,18.44
2019-04-01T10:05:59.974Z,18.39
2019-04-01T10:08:42.166Z,18.34
2019-04-01T10:11:05.188Z,18.38
2019-04-01T10:13:36.784Z,18.47
2019-04-01T10:16:08.377Z,18.50
2019-04-01T10:18:40.020Z,18.57
2019-04-01T10:21:11.670Z,18.64
2019-04-01T10:23:44.557Z,18.66
2019-04-01T10:26:16.431Z,18.67
2019-04-01T10:28:48.071Z,18.66
2019-04-01T10:31:21.380Z,18.79
2019-04-01T10:33:52.842Z,18.81
2019-04-01T10:36:24.601Z,18.90
2019-04-01T10:38:56.254Z,19.01
2019-04-01T10:41:28.425Z,19.10
2019-04-01T10:44:00.184Z,19.14
2019-04-01T10:46:32.152Z,19.18
2019-04-01T10:49:03.718Z,19.19
2019-04-01T10:51:35.794Z,19.17
2019-04-01T10:54:07.552Z,19.20
2019-04-01T10:56:40.852Z,19.25
2019-04-01T10:59:12.297Z,19.29
2019-04-01T11:01:44.176Z,19.34
2019-04-01T11:04:16.030Z,19.35
2019-04-01T11:06:47.608Z,19.40
2019-04-01T11:09:19.461Z,19.39
2019-04-01T11:11:51.309Z,19.44
2019-04-01T11:14:23.243Z,19.52
2019-04-01T11:16:55.934Z,19.61
2019-04-01T11:19:27.492Z,19.67
2019-04-01T11:22:00.066Z,19.67
2019-04-01T11:24:31.829Z,19.69
2019-04-01T11:27:03.691Z,19.70
2019-04-01T11:29:35.536Z,19.69
2019-04-01T11:32:07.754Z,19.72
2019-04-01T11:34:40.613Z,19.77
2019-04-01T11:37:12.476Z,19.94
2019-04-01T11:39:44.535Z,19.98
2019-04-01T11:42:16.719Z,19.93
2019-04-01T11:44:48.449Z,19.91
2019-04-01T11:47:22.137Z,19.89
2019-04-01T11:49:53.945Z,19.89
2019-04-01T11:52:25.790Z,19.96
2019-04-01T11:54:57.571Z,20.04
2019-04-01T11:57:30.640Z,20.10
2019-04-01T12:00:02.178Z,20.17
2019-04-01T12:02:34.162Z,20.16
2019-04-01T12:05:06.432Z,20.13
2019-04-01T12:07:38.088Z,20.22
2019-04-01T12:10:10.381Z,20.26
2019-04-01T12:12:42.212Z,20.32
2019-04-01T12:15:13.991Z,20.36
2019-04-01T12:17:45.628Z,20.41
2019-04-01T12:20:17.303Z,20.47
2019-04-01T12:22:49.777Z,20.57
2019-04-01T12:25:21.108Z,20.65
2019-04-01T12:27:52.889Z,20.73
2019-04-01T12:30:26.214Z,20.79
2019-04-01T12:32:57.950Z,20.66
2019-04-01T12:35:29.482Z,20.52
2019-04-01T12:38:01.386Z,20.57
2019-04-01T12:40:33.106Z,20.73
2019-04-01T12:43:04.982Z,21.05
2019-04-01T12:45:36.949Z,20.95
2019-04-01T12:48:08.489Z,20.74
2019-04-01T12:50:40.267Z,20.45
2019-04-01T12:53:12.022Z,20.21
2019-04-01T12:55:45.066Z,19.99
2019-04-01T12:58:17.803Z,20.08
2019-04-01T13:00:49.458Z,20.34
2019-04-01T13:03:22.548Z,20.59
2019-04-01T13:05:57.152Z,20.86
2019-04-01T13:08:29.012Z,20.73
2019-04-01T13:11:00.772Z,20.49
2019-04-01T13:13:32.250Z,20.18
2019-04-01T13:16:03.988Z,20.00
2019-04-01T13:18:38.115Z,19.86
2019-04-01T13:21:08.960Z,19.82
2019-04-01T13:23:41.627Z,19.91
2019-04-01T13:26:13.424Z,20.11
2019-04-01T13:28:45.050Z,20.40
2019-04-01T13:31:16.604Z,20.52
2019-04-01T13:33:48.092Z,20.45
2019-04-01T13:36:21.175Z,20.33
2019-04-01T13:38:53.134Z,20.14
2019-04-01T13:41:25.309Z,19.98
2019-04-01T13:43:56.963Z,19.88
2019-04-01T13:46:28.442Z,19.90
2019-04-01T13:49:04.158Z,19.88
2019-04-01T13:51:33.399Z,19.95
2019-04-01T13:54:09.045Z,19.94
2019-04-01T13:56:38.216Z,19.92
2019-04-01T13:59:11.927Z,19.84
2019-04-01T14:01:43.355Z,19.67
2019-04-01T14:04:15.139Z,19.61
2019-04-01T14:06:46.699Z,19.57
2019-04-01T14:09:18.121Z,19.61
2019-04-01T14:11:51.419Z,19.71
2019-04-01T14:14:22.991Z,19.78
2019-04-01T14:16:54.652Z,19.82
2019-04-01T14:19:26.513Z,19.68
2019-04-01T14:21:58.371Z,19.55
2019-04-01T14:24:30.442Z,19.40
2019-04-01T14:27:02.205Z,19.27
2019-04-01T14:29:33.691Z,19.12
2019-04-01T14:32:05.616Z,19.06
2019-04-01T14:34:37.193Z,18.97
2019-04-01T14:37:09.790Z,18.87
2019-04-01T14:39:41.570Z,18.92
2019-04-01T14:42:14.109Z,18.92
2019-04-01T14:44:51.388Z,18.95
2019-04-01T14:47:23.143Z,18.87
2019-04-01T14:49:54.784Z,18.83
2019-04-01T14:52:32.542Z,18.78
2019-04-01T14:55:03.954Z,18.79
2019-04-01T14:57:35.406Z,18.70
2019-04-01T15:00:08.343Z,18.55
2019-04-01T15:02:40.054Z,18.42
2019-04-01T15:05:12.763Z,18.32
2019-04-01T15:07:44.804Z,18.20
2019-04-01T15:10:16.730Z,18.11
2019-04-01T15:12:48.423Z,18.07
2019-04-01T15:15:19.997Z,18.00
2019-04-01T15:17:51.739Z,17.95
2019-04-01T15:20:23.706Z,17.88
2019-04-01T15:22:55.384Z,17.81
2019-04-01T15:25:27.976Z,17.69
2019-04-01T15:27:59.521Z,17.62
2019-04-01T15:30:32.059Z,17.57
2019-04-01T15:33:03.616Z,17.46
2019-04-01T15:35:35.596Z,17.33
2019-04-01T15:38:07.066Z,17.26
2019-04-01T15:40:38.998Z,17.19
2019-04-01T15:43:11.983Z,17.05
2019-04-01T15:45:43.753Z,16.93
2019-04-01T15:48:15.626Z,16.80
2019-04-01T15:50:47.508Z,16.64
2019-04-01T15:53:19.351Z,16.48
2019-04-01T15:55:51.009Z,16.31
2019-04-01T15:58:22.751Z,16.13
2019-04-01T16:00:54.445Z,16.05
2019-04-01T16:03:26.263Z,15.89
2019-04-01T16:06:03.034Z,15.75
2019-04-01T16:08:34.930Z,15.63
2019-04-01T16:11:06.891Z,15.53
2019-04-01T16:13:38.426Z,15.40
2019-04-01T16:16:10.410Z,15.28
2019-04-01T16:18:41.960Z,15.13
2019-04-01T16:21:14.231Z,15.02
2019-04-01T16:23:47.123Z,14.90
2019-04-01T16:26:19.888Z,14.80
2019-04-01T16:28:51.767Z,14.68
2019-04-01T16:31:23.531Z,14.57
2019-04-01T16:33:55.386Z,14.51
2019-04-01T16:36:27.032Z,14.44
2019-04-01T16:39:00.549Z,14.35
2019-04-01T16:41:33.526Z,14.29
2019-04-01T16:44:08.172Z,14.16
2019-04-01T16:46:40.950Z,14.12
2019-04-01T16:49:12.617Z,13.99
2019-04-01T16:51:44.356Z,13.88
2019-04-01T16:54:16.136Z,13.75
2019-04-01T16:56:48.180Z,13.64
2019-04-01T16:59:19.635Z,13.57
2019-04-01T17:01:52.225Z,13.48
2019-04-01T17:04:23.783Z,13.44
2019-04-01T17:06:55.548Z,13.38
2019-04-01T17:09:27.314Z,13.34
2019-04-01T17:11:59.212Z,13.34
2019-04-01T17:14:30.817Z,13.24
2019-04-01T17:17:02.490Z,13.16
2019-04-01T17:19:34.175Z,13.13
2019-04-01T17:22:06.607Z,13.07
2019-04-01T17:24:38.054Z,13.00
2019-04-01T17:27:11.451Z,12.92
2019-04-01T17:29:44.952Z,12.82
2019-04-01T17:32:16.311Z,12.73
2019-04-01T17:34:50.234Z,12.66
2019-04-01T17:37:21.767Z,12.58
2019-04-01T17:39:53.547Z,12.51
2019-04-01T17:42:25.304Z,12.42
2019-04-01T17:45:01.400Z,12.35
2019-04-01T17:47:32.806Z,12.31
2019-04-01T17:50:06.511Z,12.28
2019-04-01T17:52:37.975Z,12.17
2019-04-01T17:55:09.848Z,12.12
2019-04-01T17:57:42.831Z,12.04
2019-04-01T18:00:25.141Z,12.02
2019-04-01T18:02:56.892Z,11.90
2019-04-01T18:05:28.855Z,11.84
2019-04-01T18:08:00.309Z,11.82
2019-04-01T18:10:32.363Z,11.77
2019-04-01T18:13:03.820Z,11.71
2019-04-01T18:15:35.374Z,11.68
2019-04-01T18:18:07.253Z,11.63
2019-04-01T18:20:39.011Z,11.59
2019-04-01T18:23:11.490Z,11.59
2019-04-01T18:25:43.329Z,11.57
2019-04-01T18:28:14.888Z,11.56
2019-04-01T18:30:47.886Z,11.55
2019-04-01T18:33:20.064Z,11.54
2019-04-01T18:35:51.614Z,11.49
2019-04-01T18:38:23.785Z,11.44
2019-04-01T18:40:55.529Z,11.41
2019-04-01T18:43:28.108Z,11.39
2019-04-01T18:45:59.781Z,11.35
2019-04-01T18:48:31.644Z,11.33
2019-04-01T18:51:03.408Z,11.30
2019-04-01T18:53:35.272Z,11.22
2019-04-01T18:56:07.854Z,11.16
2019-04-01T18:58:39.609Z,11.13
2019-04-01T19:01:11.063Z,11.04
2019-04-01T19:03:43.164Z,10.97
2019-04-01T19:06:14.884Z,10.89
2019-04-01T19:08:46.539Z,10.82
2019-04-01T19:11:18.406Z,10.78
2019-04-01T19:13:50.163Z,10.72
2019-04-01T19:16:23.086Z,10.63
2019-04-01T19:18:54.614Z,10.55
2019-04-01T19:21:26.251Z,10.48
2019-04-01T19:23:59.172Z,10.41
2019-04-01T19:26:31.504Z,10.36
2019-04-01T19:29:03.492Z,10.32
2019-04-01T19:31:35.248Z,10.33
2019-04-01T19:34:07.406Z,10.26
2019-04-01T19:36:39.285Z,10.22
2019-04-01T19:39:11.345Z,10.18
2019-04-01T19:41:42.791Z,10.18
2019-04-01T19:44:14.677Z,10.17
2019-04-01T19:46:46.120Z,10.16
2019-04-01T19:49:17.778Z,10.15
2019-04-01T19:51:49.852Z,10.10
2019-04-01T19:54:30.955Z,10.06
2019-04-01T19:56:54.903Z,10.07
2019-04-01T19:59:26.359Z,10.05
2019-04-01T20:01:58.333Z,10.00
2019-04-01T20:04:30.898Z,9.94
2019-04-01T20:07:02.762Z,9.89
2019-04-01T20:09:34.415Z,9.83
2019-04-01T20:12:07.492Z,9.76
2019-04-01T20:14:40.603Z,9.74
2019-04-01T20:17:12.339Z,9.65
2019-04-01T20:19:43.998Z,9.65
2019-04-01T20:22:15.962Z,9.59
2019-04-01T20:24:48.035Z,9.53
2019-04-01T20:27:20.713Z,9.46
2019-04-01T20:29:52.587Z,9.41
2019-04-01T20:32:24.293Z,9.39
2019-04-01T20:34:57.389Z,9.36
2019-04-01T20:37:29.624Z,9.30
2019-04-01T20:40:01.274Z,9.24
2019-04-01T20:42:33.911Z,9.17
2019-04-01T20:45:07.238Z,9.10
2019-04-01T20:47:38.929Z,9.09
2019-04-01T20:50:10.657Z,9.05
2019-04-01T20:52:42.208Z,9.00
2019-04-01T20:55:14.271Z,8.94
2019-04-01T20:57:46.519Z,8.86
2019-04-01T21:00:18.497Z,8.85
2019-04-01T21:02:50.376Z,8.82
2019-04-01T21:05:23.141Z,8.79
2019-04-01T21:07:55.731Z,8.77
2019-04-01T21:10:27.290Z,8.75
2019-04-01T21:12:59.355Z,8.69
2019-04-01T21:15:30.909Z,8.66
2019-04-01T21:18:02.651Z,8.57
2019-04-01T21:20:34.324Z,8.51
2019-04-01T21:23:07.195Z,8.48
2019-04-01T21:25:40.199Z,8.48
2019-04-01T21:28:11.767Z,8.45
2019-04-01T21:30:44.247Z,8.40
2019-04-01T21:33:16.998Z,8.40
2019-04-01T21:35:48.674Z,8.33
2019-04-01T21:38:21.043Z,8.33
2019-04-01T21:40:52.814Z,8.32
2019-04-01T21:43:24.566Z,8.31
2019-04-01T21:45:56.103Z,8.23
2019-04-01T21:48:27.982Z,8.16
2019-04-01T21:50:59.836Z,8.11
2019-04-01T21:53:31.658Z,8.09
2019-04-01T21:56:03.140Z,8.03
2019-04-01T21:58:35.125Z,7.99
2019-04-01T22:01:06.677Z,7.93
2019-04-01T22:03:39.962Z,7.88
2019-04-01T22:06:11.931Z,7.83
2019-04-01T22:08:44.007Z,7.79
2019-04-01T22:11:15.644Z,7.75
2019-04-01T22:13:47.662Z,7.67
2019-04-01T22:16:19.436Z,7.62
2019-04-01T22:18:50.922Z,7.55
2019-04-01T22:21:22.691Z,7.52
2019-04-01T22:23:54.154Z,7.46
2019-04-01T22:26:25.709Z,7.39
2019-04-01T22:28:57.369Z,7.32
2019-04-01T22:31:29.129Z,7.35
2019-04-01T22:34:02.117Z,7.31
2019-04-01T22:36:33.864Z,7.33
2019-04-01T22:39:06.970Z,7.39
2019-04-01T22:41:41.390Z,7.47
2019-04-01T22:44:11.632Z,7.47
2019-04-01T22:46:44.090Z,7.48
2019-04-01T22:49:15.859Z,7.49
2019-04-01T22:51:47.630Z,7.47
2019-04-01T22:54:19.282Z,7.47
2019-04-01T22:56:51.754Z,7.45
2019-04-01T22:59:23.415Z,7.41
2019-04-01T23:01:55.361Z,7.42
2019-04-01T23:04:26.828Z,7.31
2019-04-01T23:06:58.508Z,7.31
2019-04-01T23:09:30.344Z,7.28
2019-04-01T23:12:01.807Z,7.27
2019-04-01T23:14:33.550Z,7.24
2019-04-01T23:17:05.327Z,7.16
2019-04-01T23:19:36.863Z,7.05
2019-04-01T23:22:08.625Z,7.07
2019-04-01T23:24:40.403Z,7.03
2019-04-01T23:27:11.982Z,7.01
2019-04-01T23:29:43.614Z,6.99
2019-04-01T23:32:16.329Z,6.96
2019-04-01T23:34:48.147Z,6.96
2019-04-01T23:37:19.719Z,6.94
2019-04-01T23:39:51.168Z,6.93
2019-04-01T23:42:23.031Z,6.91
2019-04-01T23:44:54.687Z,6.91
2019-04-01T23:47:26.245Z,6.93
2019-04-01T23:49:58.207Z,6.90
2019-04-01T23:52:29.979Z,6.88
2019-04-01T23:55:01.622Z,6.88
2019-04-01T23:57:33.368Z,6.90
